Marco Island, Florida
Current Conditions -  °F | °C
As of 12:53 PM on Friday 24 Oct 2014 (Local Time) from KAPF Reporting Station
Few Clouds Few Clouds  
Wind Chill: 84°   Ceiling: Unl
Heat Index: 86°   Visibility: 10mi
Dew Point: 66°   Wind: 17mph
Humidity: 55%   Direction: 50°NE
Pressure: 29.89"   Gusts: 22mph
Location:  25.97°N, 81.73°W
Report Text: KAPF 241653Z 05015G19KT 10SM FEW035 29/19 A2989 RMK AO2 SLP119 T02890189
Loading
Personal Weather Stations






























Interactive Weather Map New forecast layout! Learn more

10-Day Weather Forecast

Advertisements
Track Severe Weather on mobile